createdAt,value
2019-05-26T00:00:15.615Z,98.01
2019-05-26T00:02:48.354Z,98.03
2019-05-26T00:05:21.128Z,97.99
2019-05-26T00:07:53.928Z,97.92
2019-05-26T00:10:26.739Z,97.82
2019-05-26T00:12:59.437Z,97.77
2019-05-26T00:15:32.171Z,97.88
2019-05-26T00:18:04.967Z,97.99
2019-05-26T00:20:37.606Z,97.96
2019-05-26T00:23:10.468Z,97.89
2019-05-26T00:25:43.102Z,97.81
2019-05-26T00:28:15.694Z,97.85
2019-05-26T00:30:48.737Z,97.88
2019-05-26T00:33:21.470Z,97.84
2019-05-26T00:35:54.109Z,97.73
2019-05-26T00:38:26.786Z,97.68
2019-05-26T00:40:59.465Z,97.79
2019-05-26T00:43:32.244Z,97.96
2019-05-26T00:46:05.076Z,98.08
2019-05-26T00:48:37.824Z,98.18
2019-05-26T00:51:10.490Z,98.20
2019-05-26T00:53:43.166Z,98.23
2019-05-26T00:56:15.802Z,98.29
2019-05-26T00:58:48.437Z,98.35
2019-05-26T01:01:21.159Z,98.41
2019-05-26T01:03:53.886Z,98.54
2019-05-26T01:06:26.596Z,98.60
2019-05-26T01:08:59.317Z,98.57
2019-05-26T01:11:32.048Z,98.55
2019-05-26T01:14:05.364Z,98.47
2019-05-26T01:16:37.975Z,98.32
2019-05-26T01:19:10.796Z,98.11
2019-05-26T01:21:43.477Z,98.00
2019-05-26T01:24:16.129Z,98.03
2019-05-26T01:26:48.834Z,98.13
2019-05-26T01:29:21.596Z,98.30
2019-05-26T01:31:54.338Z,98.44
2019-05-26T01:34:27.037Z,98.57
2019-05-26T01:37:00.211Z,98.70
2019-05-26T01:39:32.954Z,98.82
2019-05-26T01:42:05.729Z,98.92
2019-05-26T01:44:38.351Z,99.01
2019-05-26T01:47:11.246Z,99.07
2019-05-26T01:49:43.813Z,99.12
2019-05-26T01:52:16.502Z,99.17
2019-05-26T01:54:49.199Z,99.21
2019-05-26T01:57:21.952Z,99.25
2019-05-26T01:59:54.603Z,99.28
2019-05-26T02:02:27.302Z,99.29
2019-05-26T02:04:59.977Z,99.32
2019-05-26T02:07:32.688Z,99.30
2019-05-26T02:10:06.155Z,99.28
2019-05-26T02:12:38.784Z,99.28
2019-05-26T02:15:13.416Z,99.26
2019-05-26T02:17:46.097Z,99.29
2019-05-26T02:20:20.286Z,99.32
2019-05-26T02:22:52.964Z,99.35
2019-05-26T02:25:27.431Z,99.36
2019-05-26T02:28:00.244Z,99.39
2019-05-26T02:30:32.967Z,99.45
2019-05-26T02:33:05.940Z,99.45
2019-05-26T02:35:38.673Z,99.48
2019-05-26T02:38:11.409Z,99.50
2019-05-26T02:40:44.157Z,99.54
2019-05-26T02:43:16.889Z,99.55
2019-05-26T02:45:49.653Z,99.58
2019-05-26T02:48:22.345Z,99.58
2019-05-26T02:50:55.126Z,99.57
2019-05-26T02:53:27.926Z,99.58
2019-05-26T02:56:00.991Z,99.55
2019-05-26T02:58:33.670Z,99.54
2019-05-26T03:01:06.662Z,99.52
2019-05-26T03:03:39.539Z,99.50
2019-05-26T03:06:14.299Z,99.47
2019-05-26T03:08:48.380Z,99.46
2019-05-26T03:11:24.386Z,99.43
2019-05-26T03:14:00.413Z,99.40
2019-05-26T03:16:37.706Z,99.38
2019-05-26T03:19:10.444Z,99.35
2019-05-26T03:21:47.335Z,99.34
2019-05-26T03:24:23.388Z,99.31
2019-05-26T03:26:56.796Z,99.25
2019-05-26T03:29:29.636Z,99.21
2019-05-26T03:32:02.453Z,99.17
2019-05-26T03:34:35.207Z,99.12
2019-05-26T03:37:08.013Z,99.08
2019-05-26T03:39:45.186Z,99.06
2019-05-26T03:42:15.257Z,99.07
2019-05-26T03:44:47.976Z,99.07
2019-05-26T03:47:20.690Z,99.11
2019-05-26T03:49:53.504Z,99.13
2019-05-26T03:52:26.828Z,99.15
2019-05-26T03:54:59.503Z,99.17
2019-05-26T03:57:32.295Z,99.21
2019-05-26T04:00:06.134Z,99.18
2019-05-26T04:02:39.003Z,99.18
2019-05-26T04:05:11.712Z,99.20
2019-05-26T04:07:44.423Z,99.21
2019-05-26T04:10:18.283Z,99.23
2019-05-26T04:12:50.981Z,99.22
2019-05-26T04:15:23.652Z,99.20
2019-05-26T04:17:56.876Z,99.19
2019-05-26T04:20:29.601Z,99.19
2019-05-26T04:23:02.254Z,99.15
2019-05-26T04:25:35.138Z,99.08
2019-05-26T04:28:07.921Z,99.01
2019-05-26T04:30:40.693Z,98.42
2019-05-26T04:33:13.494Z,97.74
2019-05-26T04:35:46.255Z,97.79
2019-05-26T04:38:18.967Z,97.88
2019-05-26T04:40:51.640Z,97.95
2019-05-26T04:43:24.367Z,98.01
2019-05-26T04:45:57.170Z,98.05
2019-05-26T04:48:29.888Z,97.99
2019-05-26T04:51:02.588Z,97.96
2019-05-26T04:53:35.311Z,97.99
2019-05-26T04:56:08.129Z,98.11
2019-05-26T04:58:40.864Z,97.96
2019-05-26T05:01:13.669Z,97.86
2019-05-26T05:03:46.576Z,97.76
2019-05-26T05:06:19.252Z,97.73
2019-05-26T05:08:52.013Z,97.31
2019-05-26T05:11:24.802Z,97.15
2019-05-26T05:13:57.676Z,97.20
2019-05-26T05:16:30.408Z,97.00
2019-05-26T05:19:03.146Z,96.64
2019-05-26T05:21:35.975Z,96.73
2019-05-26T05:24:09.013Z,96.41
2019-05-26T05:26:41.691Z,96.62
2019-05-26T05:29:14.395Z,96.55
2019-05-26T05:31:47.199Z,96.49
2019-05-26T05:34:19.906Z,96.19
2019-05-26T05:36:52.642Z,95.97
2019-05-26T05:39:25.381Z,95.29
2019-05-26T05:41:58.081Z,95.46
2019-05-26T05:44:30.849Z,95.56
2019-05-26T05:47:03.632Z,95.80
2019-05-26T05:49:36.537Z,95.39
2019-05-26T05:52:09.231Z,94.59
2019-05-26T05:54:42.026Z,94.04
2019-05-26T05:57:14.716Z,91.05
2019-05-26T05:59:47.526Z,89.21
2019-05-26T06:02:20.401Z,91.38
2019-05-26T06:04:53.273Z,92.53
2019-05-26T06:07:26.039Z,91.57
2019-05-26T06:09:58.779Z,90.98
2019-05-26T06:12:31.548Z,90.11
2019-05-26T06:15:05.253Z,91.01
2019-05-26T06:17:37.988Z,90.23
2019-05-26T06:20:11.780Z,89.34
2019-05-26T06:22:44.558Z,89.70
2019-05-26T06:25:17.518Z,90.50
2019-05-26T06:27:50.331Z,89.78
2019-05-26T06:30:23.303Z,89.14
2019-05-26T06:32:56.066Z,89.87
2019-05-26T06:35:32.457Z,88.57
2019-05-26T06:38:03.169Z,88.03
2019-05-26T06:40:35.863Z,87.86
2019-05-26T06:43:08.769Z,86.84
2019-05-26T06:45:41.549Z,85.80
2019-05-26T06:48:14.363Z,86.40
2019-05-26T06:50:47.219Z,87.03
2019-05-26T06:53:19.942Z,85.34
2019-05-26T06:55:52.795Z,86.15
2019-05-26T06:58:25.621Z,85.67
2019-05-26T07:00:58.320Z,85.18
2019-05-26T07:03:31.091Z,84.93
2019-05-26T07:06:03.882Z,84.13
2019-05-26T07:08:36.648Z,80.93
2019-05-26T07:11:09.343Z,81.67
2019-05-26T07:13:42.206Z,84.81
2019-05-26T07:16:15.192Z,80.12
2019-05-26T07:18:48.134Z,83.12
2019-05-26T07:21:20.941Z,81.33
2019-05-26T07:23:53.685Z,81.58
2019-05-26T07:26:26.540Z,77.84
2019-05-26T07:28:59.410Z,78.26
2019-05-26T07:31:32.496Z,73.56
2019-05-26T07:34:05.391Z,76.41
2019-05-26T07:36:38.084Z,74.78
2019-05-26T07:39:11.228Z,75.43
2019-05-26T07:41:43.985Z,71.84
2019-05-26T07:44:16.709Z,72.64
2019-05-26T07:46:49.492Z,74.95
2019-05-26T07:49:22.378Z,72.63
2019-05-26T07:51:55.195Z,76.54
2019-05-26T07:54:27.930Z,77.88
2019-05-26T07:57:00.681Z,70.76
2019-05-26T07:59:33.479Z,72.34
2019-05-26T08:02:05.920Z,74.23
2019-05-26T08:04:38.757Z,72.08
2019-05-26T08:07:11.619Z,73.38
2019-05-26T08:09:44.434Z,69.17
2019-05-26T08:12:26.890Z,65.97
2019-05-26T08:14:52.846Z,64.54
2019-05-26T08:17:25.646Z,65.94
2019-05-26T08:19:58.416Z,60.87
2019-05-26T08:22:31.135Z,64.87
2019-05-26T08:25:04.381Z,62.80
2019-05-26T08:27:37.208Z,58.83
2019-05-26T08:30:11.320Z,60.87
2019-05-26T08:32:44.165Z,59.30
2019-05-26T08:35:17.013Z,57.15
2019-05-26T08:37:49.896Z,56.13
2019-05-26T08:40:22.710Z,55.68
2019-05-26T08:42:55.753Z,58.23
2019-05-26T08:45:28.578Z,57.74
2019-05-26T08:48:03.717Z,55.54
2019-05-26T08:50:36.494Z,50.13
2019-05-26T08:53:09.514Z,51.02
2019-05-26T08:55:42.262Z,53.37
2019-05-26T08:58:15.189Z,51.13
2019-05-26T09:00:48.112Z,56.13
2019-05-26T09:03:20.854Z,56.38
2019-05-26T09:05:53.580Z,51.96
2019-05-26T09:08:26.968Z,48.61
2019-05-26T09:10:59.768Z,54.26
2019-05-26T09:13:32.560Z,51.98
2019-05-26T09:16:05.545Z,56.35
2019-05-26T09:18:38.359Z,50.06
2019-05-26T09:21:11.388Z,53.64
2019-05-26T09:23:44.393Z,44.55
2019-05-26T09:26:17.201Z,48.62
2019-05-26T09:28:49.913Z,55.47
2019-05-26T09:31:22.657Z,50.38
2019-05-26T09:33:55.385Z,44.04
2019-05-26T09:36:28.090Z,48.17
2019-05-26T09:39:00.959Z,46.79
2019-05-26T09:41:33.682Z,48.75
2019-05-26T09:44:06.576Z,49.13
2019-05-26T09:46:39.318Z,50.70
2019-05-26T09:49:12.189Z,57.43
2019-05-26T09:51:45.386Z,60.02
2019-05-26T09:54:18.150Z,56.41
2019-05-26T09:56:50.869Z,50.71
2019-05-26T09:59:23.780Z,57.23
2019-05-26T10:01:56.610Z,56.98
2019-05-26T10:04:29.338Z,52.26
2019-05-26T10:07:02.141Z,54.68
2019-05-26T10:09:35.246Z,50.48
2019-05-26T10:12:08.264Z,48.52
2019-05-26T10:14:42.033Z,46.36
2019-05-26T10:17:14.773Z,48.76
2019-05-26T10:19:47.638Z,45.25
2019-05-26T10:22:20.478Z,44.49
2019-05-26T10:24:53.173Z,52.13
2019-05-26T10:27:25.951Z,49.71
2019-05-26T10:29:58.720Z,54.54
2019-05-26T10:32:31.646Z,56.34
2019-05-26T10:35:04.617Z,60.78
2019-05-26T10:37:37.323Z,59.80
2019-05-26T10:40:12.291Z,60.03
2019-05-26T10:42:44.980Z,59.92
2019-05-26T10:45:18.237Z,56.84
2019-05-26T10:47:51.013Z,60.48
2019-05-26T10:50:23.882Z,54.03
2019-05-26T10:52:56.984Z,52.04
2019-05-26T10:55:29.792Z,53.81
2019-05-26T10:58:02.556Z,51.51
2019-05-26T11:00:35.254Z,52.25
2019-05-26T11:03:08.172Z,57.44
2019-05-26T11:05:40.956Z,50.32
2019-05-26T11:08:13.775Z,49.98
2019-05-26T11:10:46.497Z,49.76
2019-05-26T11:13:19.240Z,52.81
2019-05-26T11:15:52.075Z,53.20
2019-05-26T11:18:24.816Z,48.84
2019-05-26T11:20:57.590Z,47.66
2019-05-26T11:23:30.384Z,46.09
2019-05-26T11:26:03.208Z,49.87
2019-05-26T11:28:35.905Z,47.78
2019-05-26T11:31:08.778Z,50.61
2019-05-26T11:33:41.819Z,47.01
2019-05-26T11:36:14.638Z,50.78
2019-05-26T11:38:47.472Z,53.66
2019-05-26T11:41:20.245Z,59.07
2019-05-26T11:43:53.037Z,50.99
2019-05-26T11:46:25.757Z,50.15
2019-05-26T11:48:58.557Z,46.48
2019-05-26T11:51:31.333Z,53.25
2019-05-26T11:54:04.228Z,53.14
2019-05-26T11:56:36.883Z,50.82
2019-05-26T11:59:09.627Z,49.50
2019-05-26T12:01:42.433Z,50.39
2019-05-26T12:04:15.179Z,50.98
2019-05-26T12:06:47.952Z,49.77
2019-05-26T12:09:20.746Z,51.37
2019-05-26T12:11:53.585Z,52.08
2019-05-26T12:14:34.809Z,49.85
2019-05-26T12:17:05.491Z,51.46
2019-05-26T12:19:38.195Z,52.32
2019-05-26T12:22:11.029Z,52.08
2019-05-26T12:24:43.806Z,52.84
2019-05-26T12:27:16.105Z,52.59
2019-05-26T12:29:48.857Z,53.99
2019-05-26T12:32:21.576Z,54.00
2019-05-26T12:34:54.270Z,54.75
2019-05-26T12:37:27.058Z,52.23
2019-05-26T12:39:59.778Z,53.54
2019-05-26T12:42:32.484Z,54.58
2019-05-26T12:45:06.006Z,50.94
2019-05-26T12:47:38.810Z,54.26
2019-05-26T12:50:14.302Z,52.86
2019-05-26T12:52:47.082Z,51.54
2019-05-26T12:55:19.862Z,52.17
2019-05-26T12:57:52.664Z,50.30
2019-05-26T13:00:25.587Z,52.21
2019-05-26T13:03:00.784Z,49.99
2019-05-26T13:05:33.545Z,53.74
2019-05-26T13:08:06.767Z,53.89
2019-05-26T13:10:39.592Z,50.19
2019-05-26T13:13:12.405Z,53.83
2019-05-26T13:15:46.212Z,51.53
2019-05-26T13:18:19.011Z,53.32
2019-05-26T13:20:51.980Z,50.78
2019-05-26T13:23:24.726Z,49.28
2019-05-26T13:25:57.464Z,50.32
2019-05-26T13:28:30.275Z,49.75
2019-05-26T13:31:02.989Z,47.59
2019-05-26T13:33:35.801Z,46.17
2019-05-26T13:36:08.571Z,49.54
2019-05-26T13:38:41.239Z,41.10
2019-05-26T13:41:13.961Z,39.34
2019-05-26T13:43:46.001Z,39.99
2019-05-26T13:46:18.795Z,42.10
2019-05-26T13:48:53.342Z,42.60
2019-05-26T13:51:26.065Z,41.31
2019-05-26T13:53:58.056Z,37.98
2019-05-26T13:56:30.882Z,39.94
2019-05-26T13:59:03.867Z,44.77
2019-05-26T14:01:36.609Z,41.03
2019-05-26T14:04:09.358Z,42.14
2019-05-26T14:06:42.298Z,40.44
2019-05-26T14:09:15.152Z,44.09
2019-05-26T14:11:47.981Z,41.57
2019-05-26T14:14:20.803Z,42.57
2019-05-26T14:16:56.182Z,36.95
2019-05-26T14:19:31.936Z,40.51
2019-05-26T14:22:04.668Z,35.29
2019-05-26T14:24:50.904Z,45.66
2019-05-26T14:27:11.924Z,40.10
2019-05-26T14:29:44.819Z,38.34
2019-05-26T14:32:17.472Z,41.97
2019-05-26T14:34:49.729Z,35.02
2019-05-26T14:37:22.447Z,36.21
2019-05-26T14:39:55.191Z,38.53
2019-05-26T14:42:27.823Z,33.77
2019-05-26T14:45:03.901Z,34.13
2019-05-26T14:47:34.964Z,37.46
2019-05-26T14:50:10.335Z,35.60
2019-05-26T14:52:43.021Z,37.19
2019-05-26T14:55:16.058Z,35.43
2019-05-26T14:57:48.914Z,32.12
2019-05-26T15:00:22.634Z,38.14
2019-05-26T15:02:55.331Z,37.83
2019-05-26T15:05:28.042Z,41.91
2019-05-26T15:08:00.806Z,45.75
2019-05-26T15:10:33.533Z,36.57
2019-05-26T15:13:06.376Z,37.93
2019-05-26T15:15:39.185Z,38.11
2019-05-26T15:18:12.099Z,40.40
2019-05-26T15:20:44.914Z,44.89
2019-05-26T15:23:17.966Z,40.50
2019-05-26T15:25:53.761Z,41.75
2019-05-26T15:28:26.646Z,49.32
2019-05-26T15:30:59.591Z,44.53
2019-05-26T15:33:32.369Z,46.43
2019-05-26T15:36:05.072Z,46.46
2019-05-26T15:38:43.086Z,48.13
2019-05-26T15:41:12.291Z,47.19
2019-05-26T15:43:44.991Z,50.48
2019-05-26T15:46:25.165Z,50.85
2019-05-26T15:48:52.128Z,53.10
2019-05-26T15:51:27.113Z,51.50
2019-05-26T15:53:59.919Z,49.70
2019-05-26T15:56:32.670Z,52.67
2019-05-26T15:59:05.494Z,50.96
2019-05-26T16:01:38.355Z,53.07
2019-05-26T16:04:11.129Z,52.08
2019-05-26T16:06:43.843Z,52.09
2019-05-26T16:09:16.684Z,52.08
2019-05-26T16:11:49.538Z,59.63
2019-05-26T16:14:23.535Z,54.86
2019-05-26T16:16:57.338Z,57.12
2019-05-26T16:19:30.040Z,61.60
2019-05-26T16:22:02.835Z,52.32
2019-05-26T16:24:35.678Z,53.95
2019-05-26T16:27:18.684Z,52.05
2019-05-26T16:29:42.908Z,50.17
2019-05-26T16:32:18.784Z,48.74
2019-05-26T16:34:50.302Z,48.58
2019-05-26T16:37:23.045Z,47.80
2019-05-26T16:39:56.111Z,51.60
2019-05-26T16:42:28.933Z,50.26
2019-05-26T16:45:01.670Z,50.28
2019-05-26T16:47:34.384Z,54.20
2019-05-26T16:50:08.959Z,55.49
2019-05-26T16:52:41.054Z,56.74
2019-05-26T16:55:15.209Z,54.81
2019-05-26T16:57:47.998Z,55.81
2019-05-26T17:00:21.789Z,55.98
2019-05-26T17:02:54.515Z,54.79
2019-05-26T17:05:27.229Z,55.81
2019-05-26T17:08:00.185Z,54.02
2019-05-26T17:10:32.903Z,56.50
2019-05-26T17:13:05.619Z,58.14
2019-05-26T17:15:39.948Z,59.19
2019-05-26T17:18:12.842Z,62.07
2019-05-26T17:20:45.580Z,58.84
2019-05-26T17:23:18.356Z,58.74
2019-05-26T17:25:51.186Z,61.74
2019-05-26T17:28:23.895Z,58.32
2019-05-26T17:30:56.733Z,58.54
2019-05-26T17:33:29.521Z,58.68
2019-05-26T17:36:07.400Z,65.06
2019-05-26T17:38:40.144Z,64.60
2019-05-26T17:41:13.042Z,61.96
2019-05-26T17:43:45.781Z,60.01
2019-05-26T17:46:18.557Z,63.51
2019-05-26T17:48:51.265Z,62.83
2019-05-26T17:51:23.961Z,58.87
2019-05-26T17:53:57.177Z,58.22
2019-05-26T17:56:32.461Z,61.74
2019-05-26T17:59:05.446Z,61.47
2019-05-26T18:01:38.179Z,62.71
2019-05-26T18:04:10.997Z,64.89
2019-05-26T18:06:43.690Z,64.48
2019-05-26T18:09:16.473Z,68.74
2019-05-26T18:11:53.625Z,70.25
2019-05-26T18:14:26.303Z,70.17
2019-05-26T18:16:59.229Z,70.62
2019-05-26T18:19:34.053Z,70.00
2019-05-26T18:22:07.433Z,70.64
2019-05-26T18:24:53.296Z,71.07
2019-05-26T18:27:15.942Z,72.19
2019-05-26T18:29:48.730Z,73.41
2019-05-26T18:32:21.435Z,73.58
2019-05-26T18:34:54.351Z,73.91
2019-05-26T18:37:27.060Z,73.84
2019-05-26T18:39:59.740Z,75.04
2019-05-26T18:42:32.532Z,76.82
2019-05-26T18:45:05.642Z,78.20
2019-05-26T18:47:37.969Z,79.17
2019-05-26T18:50:13.554Z,80.56
2019-05-26T18:52:46.298Z,80.80
2019-05-26T18:55:19.060Z,81.52
2019-05-26T18:57:52.997Z,82.51
2019-05-26T19:00:30.918Z,83.17
2019-05-26T19:03:00.245Z,83.47
2019-05-26T19:05:38.061Z,84.18
2019-05-26T19:08:07.897Z,84.85
2019-05-26T19:10:40.715Z,85.27
2019-05-26T19:13:13.689Z,85.55
2019-05-26T19:15:46.532Z,85.88
2019-05-26T19:18:20.742Z,86.47
2019-05-26T19:20:53.676Z,86.93
2019-05-26T19:23:26.639Z,86.84
2019-05-26T19:26:02.536Z,87.01
2019-05-26T19:28:35.279Z,87.50
2019-05-26T19:31:07.985Z,88.06
2019-05-26T19:33:40.737Z,88.61
2019-05-26T19:36:13.527Z,89.04
2019-05-26T19:38:46.256Z,89.32
2019-05-26T19:41:18.948Z,88.99
2019-05-26T19:43:51.711Z,88.61
2019-05-26T19:46:25.288Z,87.98
2019-05-26T19:48:58.066Z,86.47
2019-05-26T19:51:31.021Z,86.61
2019-05-26T19:54:06.362Z,86.64
2019-05-26T19:56:38.340Z,86.75
2019-05-26T19:59:11.212Z,86.42
2019-05-26T20:01:44.173Z,86.56
2019-05-26T20:04:16.994Z,86.52
2019-05-26T21:42:51.799Z,95.18
2019-05-26T21:45:24.502Z,95.47
2019-05-26T21:47:57.188Z,95.63
2019-05-26T21:50:29.831Z,95.59
2019-05-26T21:53:02.584Z,95.49
2019-05-26T21:55:35.417Z,95.37
2019-05-26T21:58:08.303Z,95.31
2019-05-26T22:00:44.955Z,95.28
2019-05-26T22:03:17.721Z,95.23
2019-05-26T22:05:50.309Z,95.32
2019-05-26T22:08:23.045Z,95.36
2019-05-26T22:10:55.791Z,95.39
2019-05-26T22:13:27.791Z,95.39
2019-05-26T22:16:00.523Z,95.31
2019-05-26T22:18:34.232Z,95.31
2019-05-26T22:21:07.960Z,95.36
2019-05-26T22:23:41.913Z,95.05
2019-05-26T22:26:15.749Z,94.93
2019-05-26T22:28:49.321Z,94.96
2019-05-26T22:31:22.153Z,95.13
2019-05-26T22:33:55.734Z,95.26
2019-05-26T22:36:29.285Z,95.43
2019-05-26T22:39:02.665Z,95.48
2019-05-26T22:41:36.184Z,95.55
2019-05-26T22:44:10.150Z,95.51
2019-05-26T22:46:42.369Z,95.52
2019-05-26T22:49:30.966Z,95.44
2019-05-26T22:52:03.624Z,95.56
2019-05-26T22:54:36.607Z,95.75
2019-05-26T22:57:09.360Z,95.92
2019-05-26T22:59:42.008Z,96.02
2019-05-26T23:02:15.079Z,96.06
2019-05-26T23:04:47.782Z,96.12
2019-05-26T23:07:20.535Z,96.11
2019-05-26T23:09:53.187Z,96.15
2019-05-26T23:12:25.958Z,96.26
2019-05-26T23:14:58.710Z,96.25
2019-05-26T23:17:31.343Z,96.24
2019-05-26T23:20:04.207Z,96.22
2019-05-26T23:22:36.923Z,96.24
2019-05-26T23:25:10.552Z,96.20
2019-05-26T23:27:43.274Z,96.20
2019-05-26T23:30:16.795Z,96.10
2019-05-26T23:32:49.403Z,96.10
2019-05-26T23:35:22.080Z,96.12
2019-05-26T23:37:54.717Z,96.15
2019-05-26T23:40:27.340Z,96.16
2019-05-26T23:43:00.012Z,96.23
2019-05-26T23:45:32.652Z,96.17
2019-05-26T23:48:05.293Z,96.16
2019-05-26T23:50:38.061Z,96.23
2019-05-26T23:53:10.726Z,96.36
2019-05-26T23:55:43.453Z,96.51
2019-05-26T23:58:16.135Z,96.64
